sensor_id;sensor_type;location;lat;lon;timestamp;P1;durP1;ratioP1;P2;durP2;ratioP2
35961;SDS011;22044;48.298;10.008;2024-02-15T00:01:37;5.40;;;3.50;;
35961;SDS011;22044;48.298;10.008;2024-02-15T00:04:23;3.97;;;2.87;;
35961;SDS011;22044;48.298;10.008;2024-02-15T00:07:08;4.60;;;3.07;;
35961;SDS011;22044;48.298;10.008;2024-02-15T00:09:54;3.10;;;2.80;;
35961;SDS011;22044;48.298;10.008;2024-02-15T00:12:40;4.00;;;2.73;;
35961;SDS011;22044;48.298;10.008;2024-02-15T00:15:26;4.30;;;3.00;;
35961;SDS011;22044;48.298;10.008;2024-02-15T00:18:13;2.97;;;2.67;;
35961;SDS011;22044;48.298;10.008;2024-02-15T00:20:59;3.33;;;2.67;;
35961;SDS011;22044;48.298;10.008;2024-02-15T00:23:45;4.67;;;3.23;;
35961;SDS011;22044;48.298;10.008;2024-02-15T00:26:30;3.00;;;2.43;;
35961;SDS011;22044;48.298;10.008;2024-02-15T00:29:17;3.77;;;2.77;;
35961;SDS011;22044;48.298;10.008;2024-02-15T00:32:03;4.47;;;3.03;;
35961;SDS011;22044;48.298;10.008;2024-02-15T00:35:19;3.43;;;2.77;;
35961;SDS011;22044;48.298;10.008;2024-02-15T00:38:31;4.13;;;2.93;;
35961;SDS011;22044;48.298;10.008;2024-02-15T00:41:17;3.37;;;2.80;;
35961;SDS011;22044;48.298;10.008;2024-02-15T00:44:03;3.70;;;3.20;;
35961;SDS011;22044;48.298;10.008;2024-02-15T00:46:49;3.00;;;2.70;;
35961;SDS011;22044;48.298;10.008;2024-02-15T00:49:35;3.43;;;3.13;;
35961;SDS011;22044;48.298;10.008;2024-02-15T00:52:22;4.43;;;3.00;;
35961;SDS011;22044;48.298;10.008;2024-02-15T00:55:09;3.20;;;2.77;;
35961;SDS011;22044;48.298;10.008;2024-02-15T00:57:58;3.60;;;3.13;;
35961;SDS011;22044;48.298;10.008;2024-02-15T01:00:43;5.30;;;3.13;;
35961;SDS011;22044;48.298;10.008;2024-02-15T01:03:29;4.87;;;3.00;;
35961;SDS011;22044;48.298;10.008;2024-02-15T01:06:15;2.93;;;2.70;;
35961;SDS011;22044;48.298;10.008;2024-02-15T01:09:02;4.30;;;3.10;;
35961;SDS011;22044;48.298;10.008;2024-02-15T01:11:48;4.00;;;3.20;;
35961;SDS011;22044;48.298;10.008;2024-02-15T01:14:34;3.23;;;2.90;;
35961;SDS011;22044;48.298;10.008;2024-02-15T01:17:20;3.30;;;2.80;;
35961;SDS011;22044;48.298;10.008;2024-02-15T01:20:05;4.23;;;3.07;;
35961;SDS011;22044;48.298;10.008;2024-02-15T01:22:52;4.53;;;3.30;;
35961;SDS011;22044;48.298;10.008;2024-02-15T01:26:04;4.97;;;2.87;;
35961;SDS011;22044;48.298;10.008;2024-02-15T01:28:50;5.10;;;3.70;;
35961;SDS011;22044;48.298;10.008;2024-02-15T01:31:35;5.40;;;3.43;;
35961;SDS011;22044;48.298;10.008;2024-02-15T01:34:22;4.07;;;3.10;;
35961;SDS011;22044;48.298;10.008;2024-02-15T01:37:09;3.43;;;3.00;;
35961;SDS011;22044;48.298;10.008;2024-02-15T01:39:54;3.10;;;2.70;;
35961;SDS011;22044;48.298;10.008;2024-02-15T01:42:41;4.80;;;3.40;;
35961;SDS011;22044;48.298;10.008;2024-02-15T01:45:29;4.30;;;3.53;;
35961;SDS011;22044;48.298;10.008;2024-02-15T01:48:15;3.53;;;2.97;;
35961;SDS011;22044;48.298;10.008;2024-02-15T01:51:01;4.00;;;3.20;;
35961;SDS011;22044;48.298;10.008;2024-02-15T01:53:47;5.83;;;3.30;;
35961;SDS011;22044;48.298;10.008;2024-02-15T01:56:33;3.70;;;2.90;;
35961;SDS011;22044;48.298;10.008;2024-02-15T01:59:22;3.20;;;2.90;;
35961;SDS011;22044;48.298;10.008;2024-02-15T02:02:08;3.60;;;2.73;;
35961;SDS011;22044;48.298;10.008;2024-02-15T02:04:58;4.33;;;3.20;;
35961;SDS011;22044;48.298;10.008;2024-02-15T02:07:44;3.83;;;2.90;;
35961;SDS011;22044;48.298;10.008;2024-02-15T02:10:32;3.73;;;2.80;;
35961;SDS011;22044;48.298;10.008;2024-02-15T02:13:21;3.93;;;3.27;;
35961;SDS011;22044;48.298;10.008;2024-02-15T02:19:11;3.13;;;2.77;;
35961;SDS011;22044;48.298;10.008;2024-02-15T02:21:58;4.40;;;2.80;;
35961;SDS011;22044;48.298;10.008;2024-02-15T02:24:57;3.90;;;2.67;;
35961;SDS011;22044;48.298;10.008;2024-02-15T02:27:45;5.70;;;3.10;;
35961;SDS011;22044;48.298;10.008;2024-02-15T02:30:32;4.73;;;3.27;;
35961;SDS011;22044;48.298;10.008;2024-02-15T02:33:18;4.00;;;2.70;;
35961;SDS011;22044;48.298;10.008;2024-02-15T02:36:07;3.83;;;2.80;;
35961;SDS011;22044;48.298;10.008;2024-02-15T02:38:55;6.53;;;2.87;;
35961;SDS011;22044;48.298;10.008;2024-02-15T02:41:48;3.20;;;2.83;;
35961;SDS011;22044;48.298;10.008;2024-02-15T02:44:34;4.67;;;3.00;;
35961;SDS011;22044;48.298;10.008;2024-02-15T02:47:20;5.07;;;2.90;;
35961;SDS011;22044;48.298;10.008;2024-02-15T02:50:06;3.60;;;2.87;;
35961;SDS011;22044;48.298;10.008;2024-02-15T02:52:52;5.83;;;3.60;;
35961;SDS011;22044;48.298;10.008;2024-02-15T02:55:38;4.50;;;3.50;;
35961;SDS011;22044;48.298;10.008;2024-02-15T02:58:26;5.47;;;3.20;;
35961;SDS011;22044;48.298;10.008;2024-02-15T03:01:13;5.03;;;3.07;;
35961;SDS011;22044;48.298;10.008;2024-02-15T03:03:58;3.33;;;2.97;;
35961;SDS011;22044;48.298;10.008;2024-02-15T03:06:45;4.23;;;3.13;;
35961;SDS011;22044;48.298;10.008;2024-02-15T03:09:31;6.63;;;3.00;;
35961;SDS011;22044;48.298;10.008;2024-02-15T03:12:17;3.73;;;3.30;;
35961;SDS011;22044;48.298;10.008;2024-02-15T03:15:05;3.13;;;2.57;;
35961;SDS011;22044;48.298;10.008;2024-02-15T03:17:55;5.57;;;2.97;;
35961;SDS011;22044;48.298;10.008;2024-02-15T03:20:41;6.50;;;3.43;;
35961;SDS011;22044;48.298;10.008;2024-02-15T03:23:27;5.00;;;2.87;;
35961;SDS011;22044;48.298;10.008;2024-02-15T03:26:13;3.77;;;3.10;;
35961;SDS011;22044;48.298;10.008;2024-02-15T03:28:59;3.50;;;3.20;;
35961;SDS011;22044;48.298;10.008;2024-02-15T03:31:46;3.20;;;2.90;;
35961;SDS011;22044;48.298;10.008;2024-02-15T03:34:33;4.37;;;2.90;;
35961;SDS011;22044;48.298;10.008;2024-02-15T03:37:18;3.77;;;2.93;;
35961;SDS011;22044;48.298;10.008;2024-02-15T03:40:05;4.70;;;3.03;;
35961;SDS011;22044;48.298;10.008;2024-02-15T03:42:52;6.43;;;3.20;;
35961;SDS011;22044;48.298;10.008;2024-02-15T03:45:38;3.43;;;2.83;;
35961;SDS011;22044;48.298;10.008;2024-02-15T03:48:30;2.90;;;2.60;;
35961;SDS011;22044;48.298;10.008;2024-02-15T03:51:16;3.47;;;2.57;;
35961;SDS011;22044;48.298;10.008;2024-02-15T03:54:02;4.10;;;3.30;;
35961;SDS011;22044;48.298;10.008;2024-02-15T03:56:48;5.17;;;3.53;;
35961;SDS011;22044;48.298;10.008;2024-02-15T03:59:36;5.30;;;3.50;;
35961;SDS011;22044;48.298;10.008;2024-02-15T04:02:24;4.20;;;3.27;;
35961;SDS011;22044;48.298;10.008;2024-02-15T04:05:12;4.17;;;3.07;;
35961;SDS011;22044;48.298;10.008;2024-02-15T04:07:58;5.60;;;3.70;;
35961;SDS011;22044;48.298;10.008;2024-02-15T04:10:46;5.67;;;3.90;;
35961;SDS011;22044;48.298;10.008;2024-02-15T04:13:31;4.70;;;3.63;;
35961;SDS011;22044;48.298;10.008;2024-02-15T04:16:17;5.60;;;4.03;;
35961;SDS011;22044;48.298;10.008;2024-02-15T04:19:03;4.43;;;3.47;;
35961;SDS011;22044;48.298;10.008;2024-02-15T04:21:50;7.53;;;4.43;;
35961;SDS011;22044;48.298;10.008;2024-02-15T04:24:36;5.33;;;3.70;;
35961;SDS011;22044;48.298;10.008;2024-02-15T04:27:23;5.43;;;4.10;;
35961;SDS011;22044;48.298;10.008;2024-02-15T04:30:35;4.73;;;3.40;;
35961;SDS011;22044;48.298;10.008;2024-02-15T04:33:21;7.53;;;3.43;;
35961;SDS011;22044;48.298;10.008;2024-02-15T04:36:07;5.40;;;2.90;;
35961;SDS011;22044;48.298;10.008;2024-02-15T04:38:54;5.97;;;3.57;;
35961;SDS011;22044;48.298;10.008;2024-02-15T04:41:40;4.13;;;3.30;;
35961;SDS011;22044;48.298;10.008;2024-02-15T04:44:26;4.00;;;3.50;;
35961;SDS011;22044;48.298;10.008;2024-02-15T04:47:12;4.00;;;3.60;;
35961;SDS011;22044;48.298;10.008;2024-02-15T04:49:57;5.60;;;4.00;;
35961;SDS011;22044;48.298;10.008;2024-02-15T04:52:43;6.30;;;4.37;;
35961;SDS011;22044;48.298;10.008;2024-02-15T04:55:31;6.07;;;4.63;;
35961;SDS011;22044;48.298;10.008;2024-02-15T04:58:16;4.17;;;3.67;;
35961;SDS011;22044;48.298;10.008;2024-02-15T05:01:03;6.70;;;4.77;;
35961;SDS011;22044;48.298;10.008;2024-02-15T05:03:51;5.17;;;4.40;;
35961;SDS011;22044;48.298;10.008;2024-02-15T05:06:39;5.00;;;3.83;;
35961;SDS011;22044;48.298;10.008;2024-02-15T05:09:24;5.73;;;4.23;;
35961;SDS011;22044;48.298;10.008;2024-02-15T05:12:12;6.20;;;4.30;;
35961;SDS011;22044;48.298;10.008;2024-02-15T05:15:07;7.13;;;4.50;;
35961;SDS011;22044;48.298;10.008;2024-02-15T05:17:54;5.03;;;3.93;;
35961;SDS011;22044;48.298;10.008;2024-02-15T05:20:40;6.33;;;4.30;;
35961;SDS011;22044;48.298;10.008;2024-02-15T05:23:26;5.10;;;4.23;;
35961;SDS011;22044;48.298;10.008;2024-02-15T05:26:12;6.47;;;4.20;;
35961;SDS011;22044;48.298;10.008;2024-02-15T05:29:01;4.57;;;4.10;;
35961;SDS011;22044;48.298;10.008;2024-02-15T05:31:48;4.00;;;3.60;;
35961;SDS011;22044;48.298;10.008;2024-02-15T05:34:35;4.03;;;3.50;;
35961;SDS011;22044;48.298;10.008;2024-02-15T05:37:23;4.40;;;3.30;;
35961;SDS011;22044;48.298;10.008;2024-02-15T05:40:09;5.13;;;3.20;;
35961;SDS011;22044;48.298;10.008;2024-02-15T05:42:58;3.83;;;3.47;;
35961;SDS011;22044;48.298;10.008;2024-02-15T05:45:47;4.30;;;3.40;;
35961;SDS011;22044;48.298;10.008;2024-02-15T05:48:33;6.77;;;3.93;;
35961;SDS011;22044;48.298;10.008;2024-02-15T05:51:19;5.47;;;4.27;;
35961;SDS011;22044;48.298;10.008;2024-02-15T05:54:04;4.67;;;3.90;;
35961;SDS011;22044;48.298;10.008;2024-02-15T05:56:50;6.27;;;4.37;;
35961;SDS011;22044;48.298;10.008;2024-02-15T05:59:37;5.83;;;4.47;;
35961;SDS011;22044;48.298;10.008;2024-02-15T06:02:26;5.20;;;3.97;;
35961;SDS011;22044;48.298;10.008;2024-02-15T06:05:16;6.10;;;4.50;;
35961;SDS011;22044;48.298;10.008;2024-02-15T06:08:03;5.80;;;4.70;;
35961;SDS011;22044;48.298;10.008;2024-02-15T06:10:49;6.77;;;4.30;;
35961;SDS011;22044;48.298;10.008;2024-02-15T06:13:36;6.27;;;4.30;;
35961;SDS011;22044;48.298;10.008;2024-02-15T06:16:22;4.33;;;3.93;;
35961;SDS011;22044;48.298;10.008;2024-02-15T06:19:09;5.37;;;4.20;;
35961;SDS011;22044;48.298;10.008;2024-02-15T06:21:55;5.97;;;4.50;;
35961;SDS011;22044;48.298;10.008;2024-02-15T06:24:41;4.93;;;4.40;;
35961;SDS011;22044;48.298;10.008;2024-02-15T06:27:26;4.30;;;3.63;;
35961;SDS011;22044;48.298;10.008;2024-02-15T06:30:12;4.83;;;4.00;;
35961;SDS011;22044;48.298;10.008;2024-02-15T06:33:16;5.20;;;4.30;;
35961;SDS011;22044;48.298;10.008;2024-02-15T06:36:20;4.67;;;3.90;;
35961;SDS011;22044;48.298;10.008;2024-02-15T06:39:23;6.17;;;4.10;;
35961;SDS011;22044;48.298;10.008;2024-02-15T06:42:25;5.17;;;3.90;;
35961;SDS011;22044;48.298;10.008;2024-02-15T06:45:15;4.70;;;4.20;;
35961;SDS011;22044;48.298;10.008;2024-02-15T06:48:02;6.17;;;5.00;;
35961;SDS011;22044;48.298;10.008;2024-02-15T06:50:48;10.17;;;5.00;;
35961;SDS011;22044;48.298;10.008;2024-02-15T06:53:35;7.27;;;5.63;;
35961;SDS011;22044;48.298;10.008;2024-02-15T06:56:21;6.67;;;5.07;;
35961;SDS011;22044;48.298;10.008;2024-02-15T06:59:08;9.03;;;5.87;;
35961;SDS011;22044;48.298;10.008;2024-02-15T07:02:23;6.13;;;5.10;;
35961;SDS011;22044;48.298;10.008;2024-02-15T07:05:09;6.97;;;5.47;;
35961;SDS011;22044;48.298;10.008;2024-02-15T07:07:55;6.07;;;4.60;;
35961;SDS011;22044;48.298;10.008;2024-02-15T07:10:42;5.73;;;4.70;;
35961;SDS011;22044;48.298;10.008;2024-02-15T07:13:28;9.20;;;7.10;;
35961;SDS011;22044;48.298;10.008;2024-02-15T07:16:44;7.77;;;5.37;;
35961;SDS011;22044;48.298;10.008;2024-02-15T07:19:55;6.47;;;4.40;;
35961;SDS011;22044;48.298;10.008;2024-02-15T07:22:40;5.23;;;4.27;;
35961;SDS011;22044;48.298;10.008;2024-02-15T07:25:26;4.73;;;4.00;;
35961;SDS011;22044;48.298;10.008;2024-02-15T07:28:39;4.27;;;3.87;;
35961;SDS011;22044;48.298;10.008;2024-02-15T07:31:27;4.47;;;3.80;;
35961;SDS011;22044;48.298;10.008;2024-02-15T07:34:39;4.00;;;3.60;;
35961;SDS011;22044;48.298;10.008;2024-02-15T07:37:51;3.90;;;3.30;;
35961;SDS011;22044;48.298;10.008;2024-02-15T07:40:39;4.57;;;3.40;;
35961;SDS011;22044;48.298;10.008;2024-02-15T07:43:25;6.60;;;4.10;;
35961;SDS011;22044;48.298;10.008;2024-02-15T07:46:13;6.10;;;3.97;;
35961;SDS011;22044;48.298;10.008;2024-02-15T07:49:00;4.67;;;3.77;;
35961;SDS011;22044;48.298;10.008;2024-02-15T07:51:46;4.73;;;3.90;;
35961;SDS011;22044;48.298;10.008;2024-02-15T07:54:37;5.40;;;4.17;;
35961;SDS011;22044;48.298;10.008;2024-02-15T07:57:22;4.60;;;4.07;;
35961;SDS011;22044;48.298;10.008;2024-02-15T08:00:10;4.73;;;3.80;;
35961;SDS011;22044;48.298;10.008;2024-02-15T08:03:22;4.87;;;4.37;;
35961;SDS011;22044;48.298;10.008;2024-02-15T08:06:34;5.97;;;4.10;;
35961;SDS011;22044;48.298;10.008;2024-02-15T08:09:20;4.77;;;4.10;;
35961;SDS011;22044;48.298;10.008;2024-02-15T08:12:08;6.27;;;4.10;;
35961;SDS011;22044;48.298;10.008;2024-02-15T08:15:19;4.70;;;4.20;;
35961;SDS011;22044;48.298;10.008;2024-02-15T08:18:05;7.10;;;5.00;;
35961;SDS011;22044;48.298;10.008;2024-02-15T08:20:57;9.60;;;4.90;;
35961;SDS011;22044;48.298;10.008;2024-02-15T08:23:42;6.60;;;4.40;;
35961;SDS011;22044;48.298;10.008;2024-02-15T08:26:28;4.57;;;4.17;;
35961;SDS011;22044;48.298;10.008;2024-02-15T08:29:15;6.00;;;4.17;;
35961;SDS011;22044;48.298;10.008;2024-02-15T08:32:01;4.53;;;3.83;;
35961;SDS011;22044;48.298;10.008;2024-02-15T08:34:49;5.33;;;4.00;;
35961;SDS011;22044;48.298;10.008;2024-02-15T08:37:36;4.70;;;4.23;;
35961;SDS011;22044;48.298;10.008;2024-02-15T08:40:25;6.27;;;4.33;;
35961;SDS011;22044;48.298;10.008;2024-02-15T08:43:14;6.20;;;3.90;;
35961;SDS011;22044;48.298;10.008;2024-02-15T08:46:00;4.53;;;3.53;;
35961;SDS011;22044;48.298;10.008;2024-02-15T08:48:46;6.03;;;3.50;;
35961;SDS011;22044;48.298;10.008;2024-02-15T08:51:33;4.03;;;3.63;;
35961;SDS011;22044;48.298;10.008;2024-02-15T08:54:21;4.90;;;3.40;;
35961;SDS011;22044;48.298;10.008;2024-02-15T08:57:07;4.00;;;3.60;;
35961;SDS011;22044;48.298;10.008;2024-02-15T08:59:55;4.87;;;3.67;;
35961;SDS011;22044;48.298;10.008;2024-02-15T09:03:06;5.33;;;4.00;;
35961;SDS011;22044;48.298;10.008;2024-02-15T09:05:52;5.57;;;4.10;;
35961;SDS011;22044;48.298;10.008;2024-02-15T09:08:38;4.20;;;3.80;;
35961;SDS011;22044;48.298;10.008;2024-02-15T09:11:51;5.67;;;3.83;;
35961;SDS011;22044;48.298;10.008;2024-02-15T09:14:40;14.70;;;5.43;;
35961;SDS011;22044;48.298;10.008;2024-02-15T09:17:26;6.20;;;4.80;;
35961;SDS011;22044;48.298;10.008;2024-02-15T09:20:37;5.40;;;3.90;;
35961;SDS011;22044;48.298;10.008;2024-02-15T09:23:28;6.70;;;4.43;;
35961;SDS011;22044;48.298;10.008;2024-02-15T09:26:17;6.73;;;5.20;;
35961;SDS011;22044;48.298;10.008;2024-02-15T09:29:04;6.33;;;4.43;;
35961;SDS011;22044;48.298;10.008;2024-02-15T09:31:50;6.17;;;4.33;;
35961;SDS011;22044;48.298;10.008;2024-02-15T09:34:39;4.77;;;3.93;;
35961;SDS011;22044;48.298;10.008;2024-02-15T09:37:25;6.70;;;3.67;;
35961;SDS011;22044;48.298;10.008;2024-02-15T09:40:14;4.60;;;3.80;;
35961;SDS011;22044;48.298;10.008;2024-02-15T09:43:01;5.07;;;3.67;;
35961;SDS011;22044;48.298;10.008;2024-02-15T09:45:49;4.37;;;3.90;;
35961;SDS011;22044;48.298;10.008;2024-02-15T09:49:03;6.47;;;3.70;;
35961;SDS011;22044;48.298;10.008;2024-02-15T09:51:51;4.83;;;3.87;;
35961;SDS011;22044;48.298;10.008;2024-02-15T09:54:38;4.27;;;3.87;;
35961;SDS011;22044;48.298;10.008;2024-02-15T09:57:27;6.27;;;3.40;;
35961;SDS011;22044;48.298;10.008;2024-02-15T10:00:16;4.37;;;3.70;;
35961;SDS011;22044;48.298;10.008;2024-02-15T10:03:28;5.43;;;3.43;;
35961;SDS011;22044;48.298;10.008;2024-02-15T10:06:15;4.43;;;3.10;;
35961;SDS011;22044;48.298;10.008;2024-02-15T10:09:27;3.63;;;2.73;;
35961;SDS011;22044;48.298;10.008;2024-02-15T10:12:13;5.53;;;3.03;;
35961;SDS011;22044;48.298;10.008;2024-02-15T10:15:02;3.40;;;2.43;;
35961;SDS011;22044;48.298;10.008;2024-02-15T10:18:16;3.20;;;2.30;;
35961;SDS011;22044;48.298;10.008;2024-02-15T10:21:07;3.60;;;2.60;;
35961;SDS011;22044;48.298;10.008;2024-02-15T10:24:05;3.40;;;2.80;;
35961;SDS011;22044;48.298;10.008;2024-02-15T10:27:00;2.50;;;2.30;;
35961;SDS011;22044;48.298;10.008;2024-02-15T10:29:48;5.50;;;2.70;;
35961;SDS011;22044;48.298;10.008;2024-02-15T10:32:59;4.77;;;2.50;;
35961;SDS011;22044;48.298;10.008;2024-02-15T10:35:47;2.90;;;1.90;;
35961;SDS011;22044;48.298;10.008;2024-02-15T10:39:11;3.93;;;2.40;;
35961;SDS011;22044;48.298;10.008;2024-02-15T10:42:14;7.27;;;2.23;;
35961;SDS011;22044;48.298;10.008;2024-02-15T10:45:27;3.77;;;2.20;;
35961;SDS011;22044;48.298;10.008;2024-02-15T10:48:39;2.80;;;1.83;;
35961;SDS011;22044;48.298;10.008;2024-02-15T10:51:26;1.97;;;1.40;;
35961;SDS011;22044;48.298;10.008;2024-02-15T10:54:43;2.83;;;1.60;;
35961;SDS011;22044;48.298;10.008;2024-02-15T10:57:32;3.53;;;1.50;;
35961;SDS011;22044;48.298;10.008;2024-02-15T11:00:21;2.07;;;1.50;;
35961;SDS011;22044;48.298;10.008;2024-02-15T11:03:10;3.00;;;1.50;;
35961;SDS011;22044;48.298;10.008;2024-02-15T11:06:02;1.80;;;1.30;;
35961;SDS011;22044;48.298;10.008;2024-02-15T11:09:16;3.20;;;1.60;;
35961;SDS011;22044;48.298;10.008;2024-02-15T11:12:08;2.37;;;1.57;;
35961;SDS011;22044;48.298;10.008;2024-02-15T11:14:56;3.30;;;1.60;;
35961;SDS011;22044;48.298;10.008;2024-02-15T11:17:45;2.50;;;1.73;;
35961;SDS011;22044;48.298;10.008;2024-02-15T11:20:46;2.43;;;1.57;;
35961;SDS011;22044;48.298;10.008;2024-02-15T11:23:34;3.03;;;1.80;;
35961;SDS011;22044;48.298;10.008;2024-02-15T11:29:51;4.87;;;2.07;;
35961;SDS011;22044;48.298;10.008;2024-02-15T11:32:40;1.97;;;1.40;;
35961;SDS011;22044;48.298;10.008;2024-02-15T11:36:05;3.37;;;1.70;;
35961;SDS011;22044;48.298;10.008;2024-02-15T11:38:52;3.57;;;1.60;;
35961;SDS011;22044;48.298;10.008;2024-02-15T11:45:13;1.83;;;1.30;;
35961;SDS011;22044;48.298;10.008;2024-02-15T11:48:07;2.13;;;1.37;;
35961;SDS011;22044;48.298;10.008;2024-02-15T11:50:55;3.63;;;1.60;;
35961;SDS011;22044;48.298;10.008;2024-02-15T11:53:40;2.73;;;1.57;;
35961;SDS011;22044;48.298;10.008;2024-02-15T11:56:26;2.20;;;1.60;;
35961;SDS011;22044;48.298;10.008;2024-02-15T11:59:15;4.17;;;1.40;;
35961;SDS011;22044;48.298;10.008;2024-02-15T12:02:14;2.40;;;1.40;;
35961;SDS011;22044;48.298;10.008;2024-02-15T12:05:20;1.67;;;1.40;;
35961;SDS011;22044;48.298;10.008;2024-02-15T12:08:20;4.93;;;2.00;;
35961;SDS011;22044;48.298;10.008;2024-02-15T12:11:31;2.57;;;1.83;;
35961;SDS011;22044;48.298;10.008;2024-02-15T12:14:35;3.63;;;2.07;;
35961;SDS011;22044;48.298;10.008;2024-02-15T12:17:48;4.63;;;2.27;;
35961;SDS011;22044;48.298;10.008;2024-02-15T12:21:20;2.20;;;2.00;;
35961;SDS011;22044;48.298;10.008;2024-02-15T12:24:09;3.73;;;2.20;;
35961;SDS011;22044;48.298;10.008;2024-02-15T12:27:00;3.73;;;1.90;;
35961;SDS011;22044;48.298;10.008;2024-02-15T12:29:52;2.37;;;1.90;;
35961;SDS011;22044;48.298;10.008;2024-02-15T12:32:39;4.57;;;2.60;;
35961;SDS011;22044;48.298;10.008;2024-02-15T12:35:26;3.67;;;1.90;;
35961;SDS011;22044;48.298;10.008;2024-02-15T12:38:12;2.63;;;1.80;;
35961;SDS011;22044;48.298;10.008;2024-02-15T12:41:16;2.80;;;1.73;;
35961;SDS011;22044;48.298;10.008;2024-02-15T12:44:04;3.33;;;2.10;;
35961;SDS011;22044;48.298;10.008;2024-02-15T12:47:17;2.63;;;1.80;;
35961;SDS011;22044;48.298;10.008;2024-02-15T12:50:36;1.90;;;1.80;;
35961;SDS011;22044;48.298;10.008;2024-02-15T12:53:22;4.20;;;2.00;;
35961;SDS011;22044;48.298;10.008;2024-02-15T12:56:34;4.07;;;1.70;;
35961;SDS011;22044;48.298;10.008;2024-02-15T12:59:45;2.53;;;1.83;;
35961;SDS011;22044;48.298;10.008;2024-02-15T13:02:31;5.43;;;2.03;;
35961;SDS011;22044;48.298;10.008;2024-02-15T13:05:18;3.33;;;2.13;;
35961;SDS011;22044;48.298;10.008;2024-02-15T13:08:08;4.03;;;1.60;;
35961;SDS011;22044;48.298;10.008;2024-02-15T13:10:59;3.30;;;1.80;;
35961;SDS011;22044;48.298;10.008;2024-02-15T13:13:47;3.37;;;1.90;;
35961;SDS011;22044;48.298;10.008;2024-02-15T13:16:38;2.40;;;1.50;;
35961;SDS011;22044;48.298;10.008;2024-02-15T13:19:31;2.50;;;1.90;;
35961;SDS011;22044;48.298;10.008;2024-02-15T13:22:45;3.57;;;1.80;;
35961;SDS011;22044;48.298;10.008;2024-02-15T13:25:35;2.47;;;1.70;;
35961;SDS011;22044;48.298;10.008;2024-02-15T13:28:23;3.03;;;1.70;;
35961;SDS011;22044;48.298;10.008;2024-02-15T13:31:09;2.70;;;1.40;;
35961;SDS011;22044;48.298;10.008;2024-02-15T13:33:57;1.80;;;1.50;;
35961;SDS011;22044;48.298;10.008;2024-02-15T13:37:08;2.80;;;1.53;;
35961;SDS011;22044;48.298;10.008;2024-02-15T13:39:54;3.03;;;1.60;;
35961;SDS011;22044;48.298;10.008;2024-02-15T13:43:07;2.80;;;1.37;;
35961;SDS011;22044;48.298;10.008;2024-02-15T13:45:53;1.83;;;1.47;;
35961;SDS011;22044;48.298;10.008;2024-02-15T13:48:41;1.90;;;1.73;;
35961;SDS011;22044;48.298;10.008;2024-02-15T13:51:27;6.23;;;2.10;;
35961;SDS011;22044;48.298;10.008;2024-02-15T13:54:13;2.10;;;1.50;;
35961;SDS011;22044;48.298;10.008;2024-02-15T13:56:59;2.00;;;1.77;;
35961;SDS011;22044;48.298;10.008;2024-02-15T13:59:46;2.37;;;2.07;;
35961;SDS011;22044;48.298;10.008;2024-02-15T14:02:32;3.10;;;1.47;;
35961;SDS011;22044;48.298;10.008;2024-02-15T14:05:19;2.40;;;1.60;;
35961;SDS011;22044;48.298;10.008;2024-02-15T14:08:07;3.70;;;1.60;;
35961;SDS011;22044;48.298;10.008;2024-02-15T14:10:56;1.87;;;1.67;;
35961;SDS011;22044;48.298;10.008;2024-02-15T14:17:43;2.93;;;1.90;;
35961;SDS011;22044;48.298;10.008;2024-02-15T14:20:47;2.83;;;1.70;;
35961;SDS011;22044;48.298;10.008;2024-02-15T14:23:53;2.70;;;1.63;;
35961;SDS011;22044;48.298;10.008;2024-02-15T14:26:57;2.20;;;1.40;;
35961;SDS011;22044;48.298;10.008;2024-02-15T14:30:06;2.70;;;1.60;;
35961;SDS011;22044;48.298;10.008;2024-02-15T14:33:12;3.17;;;1.50;;
35961;SDS011;22044;48.298;10.008;2024-02-15T14:36:00;2.30;;;1.40;;
35961;SDS011;22044;48.298;10.008;2024-02-15T14:38:47;2.60;;;1.57;;
35961;SDS011;22044;48.298;10.008;2024-02-15T14:41:33;1.40;;;1.30;;
35961;SDS011;22044;48.298;10.008;2024-02-15T14:44:22;2.53;;;1.57;;
35961;SDS011;22044;48.298;10.008;2024-02-15T14:47:08;2.27;;;1.30;;
35961;SDS011;22044;48.298;10.008;2024-02-15T14:49:55;2.20;;;1.60;;
35961;SDS011;22044;48.298;10.008;2024-02-15T14:52:41;3.30;;;1.70;;
35961;SDS011;22044;48.298;10.008;2024-02-15T14:55:27;2.03;;;1.30;;
35961;SDS011;22044;48.298;10.008;2024-02-15T14:58:18;2.30;;;1.50;;
35961;SDS011;22044;48.298;10.008;2024-02-15T15:01:05;1.70;;;1.40;;
35961;SDS011;22044;48.298;10.008;2024-02-15T15:03:53;2.50;;;1.53;;
35961;SDS011;22044;48.298;10.008;2024-02-15T15:06:45;2.47;;;1.37;;
35961;SDS011;22044;48.298;10.008;2024-02-15T15:09:48;3.10;;;1.40;;
35961;SDS011;22044;48.298;10.008;2024-02-15T15:12:57;2.37;;;1.40;;
35961;SDS011;22044;48.298;10.008;2024-02-15T15:15:43;1.67;;;1.20;;
35961;SDS011;22044;48.298;10.008;2024-02-15T15:18:30;1.60;;;1.20;;
35961;SDS011;22044;48.298;10.008;2024-02-15T15:21:16;3.13;;;1.30;;
35961;SDS011;22044;48.298;10.008;2024-02-15T15:24:03;2.10;;;1.40;;
35961;SDS011;22044;48.298;10.008;2024-02-15T15:26:50;2.60;;;1.40;;
35961;SDS011;22044;48.298;10.008;2024-02-15T15:29:36;3.23;;;1.50;;
35961;SDS011;22044;48.298;10.008;2024-02-15T15:32:21;5.47;;;1.80;;
35961;SDS011;22044;48.298;10.008;2024-02-15T15:35:07;3.70;;;1.73;;
35961;SDS011;22044;48.298;10.008;2024-02-15T15:37:53;1.83;;;1.50;;
35961;SDS011;22044;48.298;10.008;2024-02-15T15:40:40;3.60;;;1.60;;
35961;SDS011;22044;48.298;10.008;2024-02-15T15:43:26;2.20;;;1.67;;
35961;SDS011;22044;48.298;10.008;2024-02-15T15:46:16;2.20;;;1.53;;
35961;SDS011;22044;48.298;10.008;2024-02-15T15:49:02;3.60;;;1.60;;
35961;SDS011;22044;48.298;10.008;2024-02-15T15:51:50;3.03;;;1.67;;
35961;SDS011;22044;48.298;10.008;2024-02-15T15:54:39;2.17;;;1.43;;
35961;SDS011;22044;48.298;10.008;2024-02-15T15:57:26;5.07;;;1.80;;
35961;SDS011;22044;48.298;10.008;2024-02-15T16:00:12;3.83;;;1.67;;
35961;SDS011;22044;48.298;10.008;2024-02-15T16:03:00;3.13;;;2.00;;
35961;SDS011;22044;48.298;10.008;2024-02-15T16:05:48;6.27;;;1.87;;
35961;SDS011;22044;48.298;10.008;2024-02-15T16:08:37;4.30;;;1.70;;
35961;SDS011;22044;48.298;10.008;2024-02-15T16:11:23;3.93;;;1.63;;
35961;SDS011;22044;48.298;10.008;2024-02-15T16:14:13;4.23;;;1.73;;
35961;SDS011;22044;48.298;10.008;2024-02-15T16:16:59;5.10;;;1.90;;
35961;SDS011;22044;48.298;10.008;2024-02-15T16:19:45;7.47;;;2.13;;
35961;SDS011;22044;48.298;10.008;2024-02-15T16:22:31;4.93;;;2.60;;
35961;SDS011;22044;48.298;10.008;2024-02-15T16:25:17;4.57;;;3.20;;
35961;SDS011;22044;48.298;10.008;2024-02-15T16:28:03;3.87;;;2.77;;
35961;SDS011;22044;48.298;10.008;2024-02-15T16:30:51;5.60;;;2.90;;
35961;SDS011;22044;48.298;10.008;2024-02-15T16:33:37;6.90;;;4.23;;
35961;SDS011;22044;48.298;10.008;2024-02-15T16:36:24;4.03;;;2.63;;
35961;SDS011;22044;48.298;10.008;2024-02-15T16:39:11;3.93;;;2.30;;
35961;SDS011;22044;48.298;10.008;2024-02-15T16:41:58;2.63;;;2.17;;
35961;SDS011;22044;48.298;10.008;2024-02-15T16:44:44;2.23;;;1.87;;
35961;SDS011;22044;48.298;10.008;2024-02-15T16:47:32;2.80;;;1.90;;
35961;SDS011;22044;48.298;10.008;2024-02-15T16:50:20;5.83;;;2.00;;
35961;SDS011;22044;48.298;10.008;2024-02-15T16:53:06;4.13;;;1.90;;
35961;SDS011;22044;48.298;10.008;2024-02-15T16:55:53;2.00;;;1.80;;
35961;SDS011;22044;48.298;10.008;2024-02-15T16:58:39;2.40;;;1.57;;
35961;SDS011;22044;48.298;10.008;2024-02-15T17:01:25;4.77;;;2.00;;
35961;SDS011;22044;48.298;10.008;2024-02-15T17:04:12;3.60;;;1.97;;
35961;SDS011;22044;48.298;10.008;2024-02-15T17:06:59;3.63;;;1.90;;